Birmingham, AL (35210)

7:22 AM CDT on September 22, 2014 (GMT -0500)
Crestwood South | Change Station
CLOSE
Current Station
Personal Weather Station
Location: Birmingham, AL
Elevation: 1079 ft
Nearby Weather Stations

Elev 1079 ft 33.52 °N, 86.74 °W | Updated 6 minutes ago

Partly Cloudy
Partly Cloudy
62.7 °F
Feels Like 62.7 °F
N
0.0
Wind Variable Wind from NNE

Today
High -- | Low -- °F
--% Chance of Precip.
Yesterday
High -- | Low -- °F
Precip. -- in
6:34 AM 6:43 PM
Waning Crescent, 3% visible
Pressure 30.08 in
Visibility 10.0 miles
Clouds Few 10000 ft
Dew Point 55 °F
Humidity 77%
Rainfall 0.05 in
Snow Depth Not available.
UV 0 out of 12
Pollen 7.50 out of 12
Ozone Good
PM2.5 Moderate
Flu Activity Not available.
METAR KBHM 221153Z 36005KT 10SM FEW100 17/13 A3010 RMK AO2 SLP185 60000 T01720128 10233 20167 53016

More Conditions Fewer Conditions

Pressure 30.08 in
Visibility 10.0 miles
Clouds Few 10000 ft
Dew Point 55 °F
Humidity 77%
Rainfall 0.05 in
Snow Depth Not available.
UV 0 out of 12
Pollen 7.50 out of 12
Ozone Good
PM2.5 Moderate
Flu Activity Not available.
METAR KBHM 221153Z 36005KT 10SM FEW100 17/13 A3010 RMK AO2 SLP185 60000 T01720128 10233 20167 53016

More Conditions Fewer Conditions

10-Day Weather Forecast

Almanac

Astronomy

Sep. 22, 2014 Rise Set
Actual Time 6:34 AM CDT 6:43 PM CDT
Civil Twilight 6:10 AM CDT 7:08 PM CDT
Nautical Twilight 5:41 AM CDT 7:37 PM CDT
Astronomical Twilight 5:11 AM CDT 8:06 PM CDT
Moon 5:06 AM CDT 5:49 PM CDT
Length of Visible Light 12h 58m
Length of Day
12h 08m
Tomorrow will be 2m 4s shorter.
Waning Crescent, 3% of the Moon is Illuminated
Today
Waning Crescent
Sep 24
New
Oct 1
First Quarter
Oct 8
Full
Oct 15
Last Quarter

Today's Extremes

State Highs State Lows

Community

WunderPhotos

Upload Photos

1,755,419 photos uploaded!

WunderBlogs® & News

Nearby

Air Quality

  Air Quality AQ Index Pollutant
Yesterday Good
PM10
Yesterday Good
OZONE
Current Moderate
PM2.5
Current Good
OZONE
Monday Good
OZONE
Monday Good
PM2.5

Snow Depth

Station Depth Elevation
No new snow has been reported.

Earthquake Activity

City Distance Mag. Time & Date
No recent earthquake activity has been reported nearby.
Minimum magnitude displayed is 2.5.

Coastal Water Temperatures

Place Temperature
No Stations Reporting

Nearby Weather Stations